sensor_id;sensor_type;location;lat;lon;timestamp;P1;durP1;ratioP1;P2;durP2;ratioP2
5157;SDS011;2598;52.364;9.772;2022-09-01T06:08:49;10.43;;;2.20;;
5157;SDS011;2598;52.364;9.772;2022-09-01T06:11:16;10.43;;;2.20;;
5157;SDS011;2598;52.364;9.772;2022-09-01T06:13:45;6.40;;;1.50;;
5157;SDS011;2598;52.364;9.772;2022-09-01T06:16:14;9.27;;;2.03;;
5157;SDS011;2598;52.364;9.772;2022-09-01T06:18:43;9.40;;;2.43;;
5157;SDS011;2598;52.364;9.772;2022-09-01T06:21:10;12.97;;;1.80;;
5157;SDS011;2598;52.364;9.772;2022-09-01T06:23:41;7.83;;;1.83;;
5157;SDS011;2598;52.364;9.772;2022-09-01T06:26:14;9.00;;;2.10;;
5157;SDS011;2598;52.364;9.772;2022-09-01T06:28:42;9.20;;;1.80;;
5157;SDS011;2598;52.364;9.772;2022-09-01T06:31:07;9.20;;;2.10;;
5157;SDS011;2598;52.364;9.772;2022-09-01T06:33:34;8.53;;;2.00;;
5157;SDS011;2598;52.364;9.772;2022-09-01T06:36:00;7.60;;;1.80;;
5157;SDS011;2598;52.364;9.772;2022-09-01T06:38:29;7.00;;;2.00;;
5157;SDS011;2598;52.364;9.772;2022-09-01T06:40:59;10.23;;;1.80;;
5157;SDS011;2598;52.364;9.772;2022-09-01T06:43:26;6.60;;;1.60;;
5157;SDS011;2598;52.364;9.772;2022-09-01T06:45:54;7.40;;;1.83;;
5157;SDS011;2598;52.364;9.772;2022-09-01T06:48:20;9.40;;;2.20;;
5157;SDS011;2598;52.364;9.772;2022-09-01T06:50:47;8.87;;;1.83;;
5157;SDS011;2598;52.364;9.772;2022-09-01T06:53:14;7.23;;;1.77;;
5157;SDS011;2598;52.364;9.772;2022-09-01T06:55:47;7.30;;;1.77;;
5157;SDS011;2598;52.364;9.772;2022-09-01T06:58:13;8.50;;;1.80;;
5157;SDS011;2598;52.364;9.772;2022-09-01T07:00:42;7.40;;;1.60;;
5157;SDS011;2598;52.364;9.772;2022-09-01T07:03:09;7.73;;;1.87;;
5157;SDS011;2598;52.364;9.772;2022-09-01T07:05:42;9.20;;;1.70;;
5157;SDS011;2598;52.364;9.772;2022-09-01T07:08:10;8.77;;;1.63;;
5157;SDS011;2598;52.364;9.772;2022-09-01T07:10:42;5.80;;;1.30;;
5157;SDS011;2598;52.364;9.772;2022-09-01T07:13:09;8.40;;;2.10;;
5157;SDS011;2598;52.364;9.772;2022-09-01T07:15:39;5.70;;;1.40;;
5157;SDS011;2598;52.364;9.772;2022-09-01T07:18:05;6.10;;;1.30;;
5157;SDS011;2598;52.364;9.772;2022-09-01T07:20:31;8.30;;;1.50;;
5157;SDS011;2598;52.364;9.772;2022-09-01T07:23:02;7.90;;;1.40;;
5157;SDS011;2598;52.364;9.772;2022-09-01T07:25:28;7.67;;;1.80;;
5157;SDS011;2598;52.364;9.772;2022-09-01T07:27:56;6.60;;;1.53;;
5157;SDS011;2598;52.364;9.772;2022-09-01T07:30:25;6.60;;;1.60;;
5157;SDS011;2598;52.364;9.772;2022-09-01T07:32:51;6.87;;;1.60;;
5157;SDS011;2598;52.364;9.772;2022-09-01T07:35:19;6.17;;;1.60;;
5157;SDS011;2598;52.364;9.772;2022-09-01T07:37:46;5.77;;;1.10;;
5157;SDS011;2598;52.364;9.772;2022-09-01T07:40:13;7.07;;;1.33;;
5157;SDS011;2598;52.364;9.772;2022-09-01T07:42:43;5.80;;;1.40;;
5157;SDS011;2598;52.364;9.772;2022-09-01T07:45:10;7.23;;;1.30;;
5157;SDS011;2598;52.364;9.772;2022-09-01T07:47:36;7.40;;;1.53;;
5157;SDS011;2598;52.364;9.772;2022-09-01T07:50:03;7.70;;;1.37;;
5157;SDS011;2598;52.364;9.772;2022-09-01T07:52:35;6.10;;;1.30;;
5157;SDS011;2598;52.364;9.772;2022-09-01T07:55:15;5.67;;;1.23;;
5157;SDS011;2598;52.364;9.772;2022-09-01T07:57:42;7.03;;;1.53;;
5157;SDS011;2598;52.364;9.772;2022-09-01T08:00:10;6.43;;;1.17;;
5157;SDS011;2598;52.364;9.772;2022-09-01T08:02:37;6.40;;;1.30;;
5157;SDS011;2598;52.364;9.772;2022-09-01T08:05:08;5.73;;;1.10;;
5157;SDS011;2598;52.364;9.772;2022-09-01T08:07:35;15.90;;;1.40;;
5157;SDS011;2598;52.364;9.772;2022-09-01T08:10:01;5.50;;;1.10;;
5157;SDS011;2598;52.364;9.772;2022-09-01T08:12:27;5.70;;;1.20;;
5157;SDS011;2598;52.364;9.772;2022-09-01T08:14:53;6.40;;;1.30;;
5157;SDS011;2598;52.364;9.772;2022-09-01T08:17:19;5.60;;;1.30;;
5157;SDS011;2598;52.364;9.772;2022-09-01T08:19:45;5.30;;;1.00;;
5157;SDS011;2598;52.364;9.772;2022-09-01T08:22:11;5.33;;;0.90;;
5157;SDS011;2598;52.364;9.772;2022-09-01T08:24:37;5.50;;;0.80;;
5157;SDS011;2598;52.364;9.772;2022-09-01T08:27:04;7.20;;;1.20;;
5157;SDS011;2598;52.364;9.772;2022-09-01T08:29:30;6.40;;;1.33;;
5157;SDS011;2598;52.364;9.772;2022-09-01T08:31:56;9.70;;;1.10;;
5157;SDS011;2598;52.364;9.772;2022-09-01T08:34:26;6.90;;;1.23;;
5157;SDS011;2598;52.364;9.772;2022-09-01T08:36:52;7.77;;;1.10;;
5157;SDS011;2598;52.364;9.772;2022-09-01T08:39:18;5.37;;;1.17;;
5157;SDS011;2598;52.364;9.772;2022-09-01T08:41:48;5.30;;;0.87;;
5157;SDS011;2598;52.364;9.772;2022-09-01T08:44:20;5.47;;;1.10;;
5157;SDS011;2598;52.364;9.772;2022-09-01T08:46:48;5.20;;;1.10;;
5157;SDS011;2598;52.364;9.772;2022-09-01T08:49:18;6.13;;;1.20;;
5157;SDS011;2598;52.364;9.772;2022-09-01T08:51:47;5.40;;;1.07;;
5157;SDS011;2598;52.364;9.772;2022-09-01T08:56:49;5.27;;;1.17;;
5157;SDS011;2598;52.364;9.772;2022-09-01T08:59:16;5.33;;;1.20;;
5157;SDS011;2598;52.364;9.772;2022-09-01T09:01:47;7.00;;;1.20;;
5157;SDS011;2598;52.364;9.772;2022-09-01T09:04:21;5.80;;;1.10;;
5157;SDS011;2598;52.364;9.772;2022-09-01T09:06:59;5.70;;;1.00;;
5157;SDS011;2598;52.364;9.772;2022-09-01T09:09:35;5.83;;;1.00;;
5157;SDS011;2598;52.364;9.772;2022-09-01T09:12:05;5.13;;;1.00;;
5157;SDS011;2598;52.364;9.772;2022-09-01T09:14:52;5.87;;;1.10;;
5157;SDS011;2598;52.364;9.772;2022-09-01T09:17:22;4.87;;;0.80;;
5157;SDS011;2598;52.364;9.772;2022-09-01T09:19:54;5.87;;;1.20;;
5157;SDS011;2598;52.364;9.772;2022-09-01T09:22:20;5.63;;;1.10;;
5157;SDS011;2598;52.364;9.772;2022-09-01T09:27:22;5.00;;;1.00;;
5157;SDS011;2598;52.364;9.772;2022-09-01T09:29:49;5.10;;;1.10;;
5157;SDS011;2598;52.364;9.772;2022-09-01T09:32:17;7.10;;;1.10;;
5157;SDS011;2598;52.364;9.772;2022-09-01T09:34:43;5.83;;;1.00;;
5157;SDS011;2598;52.364;9.772;2022-09-01T09:37:18;5.70;;;1.10;;
5157;SDS011;2598;52.364;9.772;2022-09-01T09:39:44;5.73;;;1.20;;
5157;SDS011;2598;52.364;9.772;2022-09-01T09:42:26;4.90;;;0.80;;
5157;SDS011;2598;52.364;9.772;2022-09-01T09:44:51;5.50;;;1.30;;
5157;SDS011;2598;52.364;9.772;2022-09-01T09:47:36;5.10;;;1.00;;
5157;SDS011;2598;52.364;9.772;2022-09-01T09:50:37;5.53;;;1.17;;
5157;SDS011;2598;52.364;9.772;2022-09-01T09:55:48;5.93;;;1.37;;
5157;SDS011;2598;52.364;9.772;2022-09-01T09:58:15;5.93;;;1.17;;
5157;SDS011;2598;52.364;9.772;2022-09-01T10:00:41;6.83;;;0.97;;
5157;SDS011;2598;52.364;9.772;2022-09-01T10:03:32;5.43;;;1.10;;
5157;SDS011;2598;52.364;9.772;2022-09-01T10:06:00;6.73;;;0.90;;
5157;SDS011;2598;52.364;9.772;2022-09-01T10:10:58;11.20;;;1.07;;
5157;SDS011;2598;52.364;9.772;2022-09-01T10:13:24;5.20;;;1.10;;
5157;SDS011;2598;52.364;9.772;2022-09-01T10:15:54;5.43;;;1.00;;
5157;SDS011;2598;52.364;9.772;2022-09-01T10:18:22;5.00;;;1.03;;
5157;SDS011;2598;52.364;9.772;2022-09-01T10:23:30;5.40;;;1.30;;
5157;SDS011;2598;52.364;9.772;2022-09-01T10:26:01;5.03;;;1.10;;
5157;SDS011;2598;52.364;9.772;2022-09-01T10:28:27;5.50;;;1.20;;
5157;SDS011;2598;52.364;9.772;2022-09-01T10:30:56;5.20;;;1.10;;
5157;SDS011;2598;52.364;9.772;2022-09-01T10:33:23;5.70;;;1.10;;
5157;SDS011;2598;52.364;9.772;2022-09-01T10:35:50;5.77;;;1.10;;
5157;SDS011;2598;52.364;9.772;2022-09-01T10:38:21;6.73;;;0.93;;
5157;SDS011;2598;52.364;9.772;2022-09-01T10:40:50;4.77;;;0.90;;
5157;SDS011;2598;52.364;9.772;2022-09-01T10:43:32;5.10;;;1.20;;
5157;SDS011;2598;52.364;9.772;2022-09-01T10:46:00;5.00;;;0.90;;
5157;SDS011;2598;52.364;9.772;2022-09-01T10:48:32;6.17;;;1.10;;
5157;SDS011;2598;52.364;9.772;2022-09-01T10:56:05;5.10;;;1.03;;
5157;SDS011;2598;52.364;9.772;2022-09-01T11:04:04;5.67;;;0.90;;
5157;SDS011;2598;52.364;9.772;2022-09-01T11:09:04;4.93;;;0.90;;
5157;SDS011;2598;52.364;9.772;2022-09-01T11:12:14;5.40;;;1.10;;
5157;SDS011;2598;52.364;9.772;2022-09-01T11:14:20;5.00;;;0.90;;
5157;SDS011;2598;52.364;9.772;2022-09-01T11:22:30;6.50;;;1.00;;
5157;SDS011;2598;52.364;9.772;2022-09-01T11:30:17;5.40;;;1.00;;
5157;SDS011;2598;52.364;9.772;2022-09-01T11:32:45;4.90;;;0.90;;
5157;SDS011;2598;52.364;9.772;2022-09-01T11:35:17;5.10;;;1.10;;
5157;SDS011;2598;52.364;9.772;2022-09-01T11:37:46;5.50;;;1.00;;
5157;SDS011;2598;52.364;9.772;2022-09-01T11:40:17;5.30;;;1.17;;
5157;SDS011;2598;52.364;9.772;2022-09-01T11:42:45;6.63;;;1.10;;
5157;SDS011;2598;52.364;9.772;2022-09-01T11:45:14;5.33;;;1.00;;
5157;SDS011;2598;52.364;9.772;2022-09-01T11:47:43;5.07;;;0.93;;
5157;SDS011;2598;52.364;9.772;2022-09-01T11:52:41;4.97;;;1.00;;
5157;SDS011;2598;52.364;9.772;2022-09-01T11:55:08;5.10;;;0.97;;
5157;SDS011;2598;52.364;9.772;2022-09-01T11:57:35;5.00;;;1.10;;
5157;SDS011;2598;52.364;9.772;2022-09-01T12:00:04;4.70;;;1.00;;
5157;SDS011;2598;52.364;9.772;2022-09-01T12:02:32;5.30;;;1.27;;
5157;SDS011;2598;52.364;9.772;2022-09-01T12:04:58;5.57;;;1.17;;
5157;SDS011;2598;52.364;9.772;2022-09-01T12:07:42;4.93;;;1.17;;
5157;SDS011;2598;52.364;9.772;2022-09-01T12:10:19;4.80;;;1.00;;
5157;SDS011;2598;52.364;9.772;2022-09-01T12:12:47;4.83;;;0.90;;
5157;SDS011;2598;52.364;9.772;2022-09-01T12:15:21;4.67;;;0.90;;
5157;SDS011;2598;52.364;9.772;2022-09-01T12:17:47;5.00;;;1.07;;
5157;SDS011;2598;52.364;9.772;2022-09-01T12:20:20;5.60;;;1.07;;
5157;SDS011;2598;52.364;9.772;2022-09-01T12:22:47;5.83;;;1.03;;
5157;SDS011;2598;52.364;9.772;2022-09-01T12:25:17;5.17;;;0.90;;
5157;SDS011;2598;52.364;9.772;2022-09-01T12:27:44;4.60;;;0.90;;
5157;SDS011;2598;52.364;9.772;2022-09-01T12:30:11;5.90;;;1.33;;
5157;SDS011;2598;52.364;9.772;2022-09-01T12:32:37;5.10;;;0.90;;
5157;SDS011;2598;52.364;9.772;2022-09-01T12:35:04;5.70;;;1.03;;
5157;SDS011;2598;52.364;9.772;2022-09-01T12:37:40;5.60;;;1.00;;
5157;SDS011;2598;52.364;9.772;2022-09-01T12:40:06;7.83;;;1.30;;
5157;SDS011;2598;52.364;9.772;2022-09-01T12:42:50;4.60;;;1.00;;
5157;SDS011;2598;52.364;9.772;2022-09-01T12:45:34;5.00;;;0.93;;
5157;SDS011;2598;52.364;9.772;2022-09-01T12:48:00;5.20;;;1.10;;
5157;SDS011;2598;52.364;9.772;2022-09-01T12:52:53;5.47;;;0.97;;
5157;SDS011;2598;52.364;9.772;2022-09-01T12:55:21;5.87;;;1.10;;
5157;SDS011;2598;52.364;9.772;2022-09-01T12:57:47;5.40;;;1.30;;
5157;SDS011;2598;52.364;9.772;2022-09-01T13:00:25;5.00;;;0.80;;
5157;SDS011;2598;52.364;9.772;2022-09-01T13:07:54;5.33;;;1.20;;
5157;SDS011;2598;52.364;9.772;2022-09-01T13:10:21;4.90;;;1.10;;
5157;SDS011;2598;52.364;9.772;2022-09-01T13:12:49;5.53;;;1.20;;
5157;SDS011;2598;52.364;9.772;2022-09-01T13:15:15;5.40;;;1.00;;
5157;SDS011;2598;52.364;9.772;2022-09-01T13:17:41;5.53;;;1.10;;
5157;SDS011;2598;52.364;9.772;2022-09-01T13:20:07;6.23;;;1.10;;
5157;SDS011;2598;52.364;9.772;2022-09-01T13:22:35;4.70;;;0.90;;
5157;SDS011;2598;52.364;9.772;2022-09-01T13:25:02;5.67;;;1.00;;
5157;SDS011;2598;52.364;9.772;2022-09-01T13:27:28;5.23;;;0.90;;
5157;SDS011;2598;52.364;9.772;2022-09-01T13:29:54;4.70;;;1.00;;
5157;SDS011;2598;52.364;9.772;2022-09-01T13:32:20;4.93;;;1.10;;
5157;SDS011;2598;52.364;9.772;2022-09-01T13:34:48;6.93;;;1.00;;
5157;SDS011;2598;52.364;9.772;2022-09-01T13:37:14;5.50;;;1.30;;
5157;SDS011;2598;52.364;9.772;2022-09-01T13:39:40;6.70;;;1.10;;
5157;SDS011;2598;52.364;9.772;2022-09-01T13:42:06;7.13;;;1.00;;
5157;SDS011;2598;52.364;9.772;2022-09-01T13:44:32;5.10;;;1.10;;
5157;SDS011;2598;52.364;9.772;2022-09-01T13:46:58;4.90;;;1.23;;
5157;SDS011;2598;52.364;9.772;2022-09-01T13:49:24;5.97;;;1.20;;
5157;SDS011;2598;52.364;9.772;2022-09-01T13:51:50;4.73;;;0.87;;
5157;SDS011;2598;52.364;9.772;2022-09-01T13:54:17;7.43;;;1.13;;
5157;SDS011;2598;52.364;9.772;2022-09-01T13:56:43;4.70;;;0.93;;
5157;SDS011;2598;52.364;9.772;2022-09-01T13:59:09;4.80;;;1.00;;
5157;SDS011;2598;52.364;9.772;2022-09-01T14:01:35;4.73;;;1.03;;
5157;SDS011;2598;52.364;9.772;2022-09-01T14:04:01;7.23;;;1.00;;
5157;SDS011;2598;52.364;9.772;2022-09-01T14:06:29;4.87;;;1.00;;
5157;SDS011;2598;52.364;9.772;2022-09-01T14:08:55;4.97;;;1.03;;
5157;SDS011;2598;52.364;9.772;2022-09-01T14:11:23;5.20;;;1.03;;
5157;SDS011;2598;52.364;9.772;2022-09-01T14:13:50;6.27;;;1.10;;
5157;SDS011;2598;52.364;9.772;2022-09-01T14:16:16;6.47;;;1.10;;
5157;SDS011;2598;52.364;9.772;2022-09-01T14:18:42;5.17;;;1.10;;
5157;SDS011;2598;52.364;9.772;2022-09-01T14:21:12;5.50;;;1.20;;
5157;SDS011;2598;52.364;9.772;2022-09-01T14:23:39;5.60;;;1.00;;
5157;SDS011;2598;52.364;9.772;2022-09-01T14:26:09;11.43;;;1.40;;
5157;SDS011;2598;52.364;9.772;2022-09-01T14:28:36;5.10;;;0.80;;
5157;SDS011;2598;52.364;9.772;2022-09-01T14:31:06;4.97;;;1.07;;
5157;SDS011;2598;52.364;9.772;2022-09-01T14:33:32;4.60;;;0.80;;
5157;SDS011;2598;52.364;9.772;2022-09-01T14:35:58;7.30;;;1.30;;
5157;SDS011;2598;52.364;9.772;2022-09-01T14:38:24;11.20;;;1.10;;
5157;SDS011;2598;52.364;9.772;2022-09-01T14:40:50;5.60;;;1.20;;
5157;SDS011;2598;52.364;9.772;2022-09-01T14:43:17;4.90;;;0.90;;
5157;SDS011;2598;52.364;9.772;2022-09-01T14:45:43;4.80;;;0.90;;
5157;SDS011;2598;52.364;9.772;2022-09-01T14:48:11;5.43;;;1.03;;
5157;SDS011;2598;52.364;9.772;2022-09-01T14:50:39;5.00;;;1.07;;
5157;SDS011;2598;52.364;9.772;2022-09-01T14:53:05;4.80;;;0.87;;
5157;SDS011;2598;52.364;9.772;2022-09-01T14:55:32;5.00;;;1.10;;
5157;SDS011;2598;52.364;9.772;2022-09-01T14:57:58;4.87;;;0.93;;
5157;SDS011;2598;52.364;9.772;2022-09-01T15:00:24;4.87;;;1.10;;
5157;SDS011;2598;52.364;9.772;2022-09-01T15:02:51;8.60;;;1.00;;
5157;SDS011;2598;52.364;9.772;2022-09-01T15:05:18;5.53;;;1.20;;
5157;SDS011;2598;52.364;9.772;2022-09-01T15:07:44;5.07;;;1.07;;
5157;SDS011;2598;52.364;9.772;2022-09-01T15:10:10;5.87;;;0.97;;
5157;SDS011;2598;52.364;9.772;2022-09-01T15:12:37;5.27;;;1.20;;
5157;SDS011;2598;52.364;9.772;2022-09-01T15:15:03;6.80;;;0.97;;
5157;SDS011;2598;52.364;9.772;2022-09-01T15:17:29;4.70;;;1.00;;
5157;SDS011;2598;52.364;9.772;2022-09-01T15:19:55;5.33;;;1.03;;
5157;SDS011;2598;52.364;9.772;2022-09-01T15:22:44;4.73;;;0.90;;
5157;SDS011;2598;52.364;9.772;2022-09-01T15:25:11;6.50;;;1.10;;
5157;SDS011;2598;52.364;9.772;2022-09-01T15:27:37;5.43;;;0.97;;
5157;SDS011;2598;52.364;9.772;2022-09-01T15:30:03;8.30;;;1.00;;
5157;SDS011;2598;52.364;9.772;2022-09-01T15:32:38;6.40;;;1.07;;
5157;SDS011;2598;52.364;9.772;2022-09-01T15:35:05;5.30;;;1.07;;
5157;SDS011;2598;52.364;9.772;2022-09-01T15:37:31;4.87;;;1.30;;
5157;SDS011;2598;52.364;9.772;2022-09-01T15:39:57;4.90;;;1.20;;
5157;SDS011;2598;52.364;9.772;2022-09-01T15:42:23;4.60;;;0.93;;
5157;SDS011;2598;52.364;9.772;2022-09-01T15:44:49;6.43;;;1.30;;
5157;SDS011;2598;52.364;9.772;2022-09-01T15:47:15;7.87;;;1.40;;
5157;SDS011;2598;52.364;9.772;2022-09-01T15:49:41;6.03;;;1.20;;
5157;SDS011;2598;52.364;9.772;2022-09-01T15:52:07;4.90;;;1.20;;
5157;SDS011;2598;52.364;9.772;2022-09-01T15:54:36;5.30;;;1.30;;
5157;SDS011;2598;52.364;9.772;2022-09-01T15:57:02;4.97;;;0.97;;
5157;SDS011;2598;52.364;9.772;2022-09-01T15:59:28;5.73;;;1.00;;
5157;SDS011;2598;52.364;9.772;2022-09-01T16:01:54;6.03;;;1.20;;
5157;SDS011;2598;52.364;9.772;2022-09-01T16:04:21;6.03;;;0.93;;
5157;SDS011;2598;52.364;9.772;2022-09-01T16:06:47;5.30;;;1.20;;
5157;SDS011;2598;52.364;9.772;2022-09-01T16:09:14;5.10;;;1.00;;
5157;SDS011;2598;52.364;9.772;2022-09-01T16:11:42;4.80;;;1.10;;
5157;SDS011;2598;52.364;9.772;2022-09-01T16:14:08;5.47;;;1.17;;
5157;SDS011;2598;52.364;9.772;2022-09-01T16:22:00;7.13;;;1.20;;
5157;SDS011;2598;52.364;9.772;2022-09-01T16:24:29;7.83;;;1.20;;
5157;SDS011;2598;52.364;9.772;2022-09-01T16:26:57;4.90;;;0.90;;
5157;SDS011;2598;52.364;9.772;2022-09-01T16:29:36;5.30;;;1.03;;
5157;SDS011;2598;52.364;9.772;2022-09-01T16:32:03;8.10;;;1.30;;
5157;SDS011;2598;52.364;9.772;2022-09-01T16:34:29;5.30;;;1.10;;
5157;SDS011;2598;52.364;9.772;2022-09-01T16:39:43;5.87;;;1.20;;
5157;SDS011;2598;52.364;9.772;2022-09-01T16:52:29;5.30;;;1.00;;
5157;SDS011;2598;52.364;9.772;2022-09-01T16:55:15;8.10;;;1.10;;
5157;SDS011;2598;52.364;9.772;2022-09-01T16:57:59;6.80;;;1.23;;
5157;SDS011;2598;52.364;9.772;2022-09-01T17:00:37;4.90;;;1.07;;
5157;SDS011;2598;52.364;9.772;2022-09-01T17:03:11;4.80;;;1.00;;
5157;SDS011;2598;52.364;9.772;2022-09-01T17:05:48;5.10;;;1.00;;
5157;SDS011;2598;52.364;9.772;2022-09-01T17:08:31;7.70;;;1.13;;
5157;SDS011;2598;52.364;9.772;2022-09-01T17:11:12;5.50;;;1.00;;
5157;SDS011;2598;52.364;9.772;2022-09-01T17:13:43;5.37;;;1.07;;
5157;SDS011;2598;52.364;9.772;2022-09-01T17:16:26;4.80;;;0.90;;
5157;SDS011;2598;52.364;9.772;2022-09-01T17:19:00;5.10;;;1.00;;
5157;SDS011;2598;52.364;9.772;2022-09-01T17:21:38;4.70;;;1.00;;
5157;SDS011;2598;52.364;9.772;2022-09-01T17:26:55;5.60;;;0.97;;
5157;SDS011;2598;52.364;9.772;2022-09-01T17:29:30;7.33;;;1.00;;
5157;SDS011;2598;52.364;9.772;2022-09-01T17:32:08;5.20;;;1.20;;
5157;SDS011;2598;52.364;9.772;2022-09-01T17:37:09;5.97;;;1.20;;
5157;SDS011;2598;52.364;9.772;2022-09-01T17:42:30;5.20;;;1.00;;
5157;SDS011;2598;52.364;9.772;2022-09-01T17:45:09;5.30;;;1.07;;
5157;SDS011;2598;52.364;9.772;2022-09-01T17:50:24;5.20;;;1.10;;
5157;SDS011;2598;52.364;9.772;2022-09-01T17:53:07;4.93;;;0.97;;
5157;SDS011;2598;52.364;9.772;2022-09-01T17:55:51;5.17;;;0.93;;
5157;SDS011;2598;52.364;9.772;2022-09-01T17:58:28;11.70;;;1.00;;
5157;SDS011;2598;52.364;9.772;2022-09-01T18:01:00;5.47;;;1.33;;
5157;SDS011;2598;52.364;9.772;2022-09-01T18:06:06;6.37;;;1.23;;
5157;SDS011;2598;52.364;9.772;2022-09-01T18:08:37;6.43;;;1.20;;
